Time;durP1;ratioP1;P1;durP2;ratioP2;P2;SDS_P1;SDS_P2;PMS_P1;PMS_P2;Temp;Humidity;BMP_temperature;BMP_pressure;BME280_temperature;BME280_humidity;BME280_pressure;Samples;Min_cycle;Max_cycle;Signal;HPM_P1;HPM_P2
2022/01/28 00:02:47;;;;;;;12.00;2.17;;;5.10;99.90;;;;;;4990124;28;20042;-72
2022/01/28 00:05:17;;;;;;;20.00;2.17;;;5.00;99.90;;;;;;4989282;28;20066;-72
2022/01/28 00:07:43;;;;;;;9.13;1.77;;;4.90;99.90;;;;;;4980077;28;20041;-72
2022/01/28 00:10:09;;;;;;;9.45;2.80;;;4.90;99.90;;;;;;5008614;28;20480;-72
2022/01/28 00:12:42;;;;;;;14.82;3.15;;;4.90;99.90;;;;;;4987776;28;20038;-73
2022/01/28 00:15:18;;;;;;;12.52;2.15;;;4.90;99.90;;;;;;4993806;28;20096;-72
2022/01/28 00:18:26;;;;;;;20.35;2.70;;;5.00;99.90;;;;;;4993652;28;20615;-72
2022/01/28 00:39:32;;;;;;;15.48;2.63;;;5.00;99.90;;;;;;4994089;28;20046;-71
2022/01/28 00:41:58;;;;;;;14.23;2.85;;;5.00;99.90;;;;;;5000267;28;20044;-71
2022/01/28 00:44:23;;;;;;;19.35;3.83;;;5.00;99.90;;;;;;4993725;28;20129;-71
2022/01/28 00:46:49;;;;;;;9.85;2.13;;;4.90;99.90;;;;;;4995280;28;20081;-72
2022/01/28 00:49:15;;;;;;;17.42;2.67;;;5.00;99.90;;;;;;4994078;28;20045;-71
2022/01/28 00:51:40;;;;;;;12.90;2.42;;;5.00;99.90;;;;;;4990609;28;20128;-72
2022/01/28 00:54:06;;;;;;;13.90;2.58;;;4.90;99.90;;;;;;5001342;28;20637;-71
2022/01/28 00:56:32;;;;;;;12.07;2.10;;;5.00;99.90;;;;;;4997352;28;20037;-71
2022/01/28 00:58:57;;;;;;;16.52;2.38;;;5.00;99.90;;;;;;4987586;28;20133;-71
2022/01/28 01:01:23;;;;;;;15.48;2.70;;;5.10;99.90;;;;;;4993505;28;20085;-71
2022/01/28 01:03:48;;;;;;;14.35;2.75;;;5.00;99.90;;;;;;4993180;28;20038;-71
2022/01/28 01:06:14;;;;;;;17.48;2.97;;;5.10;99.90;;;;;;5008217;28;20056;-71
2022/01/28 01:08:39;;;;;;;11.38;2.35;;;5.10;99.90;;;;;;4990515;28;20423;-72
2022/01/28 01:11:06;;;;;;;15.70;2.15;;;5.10;99.90;;;;;;4994565;28;20042;-71
2022/01/28 01:13:38;;;;;;;12.07;2.20;;;5.10;99.90;;;;;;5002599;28;20034;-72
2022/01/28 01:16:05;;;;;;;16.27;2.67;;;5.20;99.90;;;;;;4990166;28;20033;-72
2022/01/28 01:18:50;;;;;;;16.77;3.67;;;5.10;99.90;;;;;;4991329;28;20042;-71
2022/01/28 01:21:25;;;;;;;10.93;1.92;;;5.10;99.90;;;;;;4990228;28;20430;-72
2022/01/28 01:23:54;;;;;;;12.65;2.65;;;5.10;99.90;;;;;;4992767;28;20041;-72
2022/01/28 01:26:27;;;;;;;15.23;3.60;;;5.10;99.90;;;;;;4993995;28;20088;-71
2022/01/28 01:28:53;;;;;;;15.52;3.20;;;5.20;99.90;;;;;;5012249;28;20396;-71
2022/01/28 01:31:19;;;;;;;21.25;4.22;;;5.30;99.90;;;;;;4994402;28;20049;-71
2022/01/28 01:36:21;;;;;;;17.13;3.47;;;5.30;99.90;;;;;;5003895;28;20081;-71
2022/01/28 01:38:46;;;;;;;18.77;3.33;;;5.20;99.90;;;;;;5002653;28;20042;-71
2022/01/28 01:41:19;;;;;;;20.67;2.92;;;5.20;99.90;;;;;;4996734;28;20038;-71
2022/01/28 01:44:07;;;;;;;16.35;3.10;;;5.30;99.90;;;;;;5004720;28;20056;-71
2022/01/28 01:52:04;;;;;;;12.60;2.72;;;5.40;99.90;;;;;;5016500;28;20061;-71
2022/01/28 01:54:35;;;;;;;17.90;3.08;;;5.40;99.90;;;;;;5014017;28;20041;-72
2022/01/28 01:57:02;;;;;;;16.58;3.58;;;5.40;99.90;;;;;;4996453;28;20045;-72
2022/01/28 01:59:27;;;;;;;21.55;3.17;;;5.40;99.90;;;;;;4980799;28;20176;-71
2022/01/28 02:01:53;;;;;;;24.60;3.40;;;5.20;99.90;;;;;;4995805;28;20113;-71
2022/01/28 02:04:19;;;;;;;18.70;3.92;;;5.20;99.90;;;;;;5012645;28;20042;-71
2022/01/28 02:06:45;;;;;;;15.40;3.35;;;5.10;99.90;;;;;;5010964;28;20408;-71
2022/01/28 02:09:11;;;;;;;17.77;3.30;;;5.00;99.90;;;;;;4983210;28;20045;-72
2022/01/28 02:11:40;;;;;;;17.83;3.83;;;5.10;99.90;;;;;;4994532;28;20053;-72
2022/01/28 02:14:06;;;;;;;19.27;3.22;;;5.10;99.90;;;;;;4996644;28;20046;-72
2022/01/28 02:16:31;;;;;;;24.40;4.32;;;5.10;99.90;;;;;;4993095;28;20049;-72
2022/01/28 02:18:57;;;;;;;20.90;4.35;;;5.10;99.90;;;;;;5012305;28;20045;-71
2022/01/28 02:21:23;;;;;;;18.70;3.95;;;5.10;99.90;;;;;;4992152;28;20082;-72
2022/01/28 02:23:54;;;;;;;21.17;3.50;;;5.10;99.90;;;;;;4993142;28;20076;-71
2022/01/28 02:26:20;;;;;;;21.45;3.70;;;5.10;99.90;;;;;;4992183;28;20045;-71
2022/01/28 02:28:50;;;;;;;23.35;4.05;;;5.30;99.90;;;;;;4992063;28;20044;-71
2022/01/28 02:31:22;;;;;;;22.42;3.75;;;5.20;99.90;;;;;;4993491;28;20150;-71
2022/01/28 02:33:48;;;;;;;24.42;3.85;;;5.20;99.90;;;;;;5010257;28;20464;-71
2022/01/28 02:36:14;;;;;;;20.90;4.40;;;5.30;99.90;;;;;;4996006;28;20042;-71
2022/01/28 02:38:40;;;;;;;23.05;4.15;;;5.30;99.90;;;;;;4995765;28;20133;-71
2022/01/28 02:41:06;;;;;;;29.13;4.18;;;5.30;99.90;;;;;;4991885;28;20389;-72
2022/01/28 02:46:23;;;;;;;20.25;3.55;;;5.40;99.90;;;;;;4949740;28;20506;-71
2022/01/28 02:49:00;;;;;;;23.02;3.47;;;5.40;99.90;;;;;;4980061;28;20046;-71
2022/01/28 02:51:25;;;;;;;18.65;3.13;;;5.40;99.90;;;;;;4990154;28;20129;-71
2022/01/28 02:53:57;;;;;;;25.30;5.47;;;5.40;99.90;;;;;;4993804;28;20125;-71
2022/01/28 02:56:35;;;;;;;18.98;4.15;;;5.40;99.90;;;;;;4993196;28;20033;-72
2022/01/28 02:59:00;;;;;;;26.52;4.28;;;5.30;99.90;;;;;;4988733;28;20076;-72
2022/01/28 03:01:26;;;;;;;18.58;3.40;;;5.30;99.90;;;;;;4983727;28;20507;-71
2022/01/28 03:03:55;;;;;;;24.48;4.30;;;5.40;99.90;;;;;;4992473;28;20049;-72
2022/01/28 03:06:21;;;;;;;21.25;3.75;;;5.40;99.90;;;;;;4978612;28;20065;-72
2022/01/28 03:08:55;;;;;;;22.30;3.50;;;5.40;99.90;;;;;;4984590;28;20038;-71
2022/01/28 03:14:00;;;;;;;25.15;4.05;;;5.50;99.90;;;;;;5017341;28;20137;-71
2022/01/28 03:16:29;;;;;;;18.90;3.13;;;5.50;99.90;;;;;;4986213;28;20042;-72
2022/01/28 03:19:02;;;;;;;22.50;3.83;;;5.50;99.90;;;;;;5013438;28;20045;-71
2022/01/28 03:23:57;;;;;;;21.08;3.47;;;5.70;99.90;;;;;;4988348;28;20056;-71
2022/01/28 03:26:25;;;;;;;27.80;4.10;;;5.60;99.90;;;;;;5000245;28;20038;-72
2022/01/28 03:28:51;;;;;;;18.52;3.35;;;5.60;99.90;;;;;;4988279;28;20050;-71
2022/01/28 03:31:17;;;;;;;22.50;3.47;;;5.60;99.90;;;;;;4985419;28;20038;-71
2022/01/28 03:33:43;;;;;;;23.45;3.78;;;5.60;99.90;;;;;;5008404;28;20037;-71
2022/01/28 03:36:10;;;;;;;21.63;3.42;;;5.60;99.90;;;;;;4989723;28;20375;-71
2022/01/28 03:38:37;;;;;;;19.70;3.90;;;5.60;99.90;;;;;;4988117;28;20030;-71
2022/01/28 03:41:03;;;;;;;18.35;3.08;;;5.50;99.90;;;;;;5006015;28;20030;-72
2022/01/28 03:43:29;;;;;;;16.77;3.47;;;5.50;99.90;;;;;;4985549;28;20046;-72
2022/01/28 03:45:55;;;;;;;20.35;3.33;;;5.60;99.90;;;;;;4980982;28;20034;-71
2022/01/28 03:48:20;;;;;;;22.48;4.13;;;5.50;99.90;;;;;;5003321;28;20604;-72
2022/01/28 03:50:46;;;;;;;9.05;1.95;;;5.40;99.90;;;;;;4986472;28;20121;-71
2022/01/28 03:53:11;;;;;;;15.75;2.92;;;5.40;99.90;;;;;;4986932;28;20083;-71
2022/01/28 03:55:37;;;;;;;14.68;3.00;;;5.40;99.90;;;;;;5001395;28;20049;-72
2022/01/28 03:58:03;;;;;;;21.48;3.35;;;5.40;99.90;;;;;;4993573;28;20049;-72
2022/01/28 04:00:31;;;;;;;18.20;3.45;;;5.40;99.90;;;;;;4989060;28;20046;-71
2022/01/28 04:03:09;;;;;;;22.50;3.78;;;5.40;99.90;;;;;;4992689;28;20045;-71
2022/01/28 04:13:33;;;;;;;19.75;3.28;;;5.40;99.90;;;;;;4960697;28;20096;-71
2022/01/28 04:18:24;;;;;;;20.60;3.65;;;5.40;99.90;;;;;;4978278;28;20049;-71
2022/01/28 04:20:50;;;;;;;21.20;3.60;;;5.30;99.90;;;;;;5006368;28;20053;-71
2022/01/28 04:23:16;;;;;;;22.95;3.75;;;5.20;99.90;;;;;;4977583;28;20034;-71
2022/01/28 04:25:41;;;;;;;17.42;3.25;;;5.10;99.90;;;;;;4991597;28;20103;-71
2022/01/28 04:28:07;;;;;;;19.38;4.28;;;5.00;99.90;;;;;;4980649;28;20053;-71
2022/01/28 04:30:33;;;;;;;17.90;3.60;;;5.10;99.90;;;;;;4985475;28;20690;-71
2022/01/28 04:32:58;;;;;;;20.25;3.28;;;5.00;99.90;;;;;;4977551;28;20072;-71
2022/01/28 04:35:24;;;;;;;16.83;4.28;;;5.10;99.90;;;;;;4978003;28;20046;-71
2022/01/28 04:38:17;;;;;;;22.50;3.63;;;4.90;99.90;;;;;;4989592;28;20046;-71
2022/01/28 04:40:59;;;;;;;26.45;3.83;;;4.90;99.90;;;;;;4990614;28;20077;-71
2022/01/28 04:43:32;;;;;;;20.83;4.25;;;4.80;99.90;;;;;;4982865;28;20054;-71
2022/01/28 04:46:12;;;;;;;24.42;4.07;;;4.80;99.90;;;;;;5003277;28;20096;-71
2022/01/28 04:48:46;;;;;;;18.45;3.28;;;4.80;99.90;;;;;;4984551;28;20038;-71
2022/01/28 04:51:28;;;;;;;19.05;3.65;;;4.80;99.90;;;;;;4987031;28;20038;-71
2022/01/28 04:54:06;;;;;;;22.77;3.70;;;4.80;99.90;;;;;;4989137;28;20076;-71
2022/01/28 04:56:45;;;;;;;19.45;3.35;;;4.80;99.90;;;;;;4964288;28;20026;-71
2022/01/28 05:26:21;;;;;;;28.05;4.35;;;4.60;99.90;;;;;;4985481;28;20132;-72
2022/01/28 05:28:40;;;;;;;26.10;3.78;;;4.60;99.90;;;;;;4989061;28;20039;-71
2022/01/28 05:31:06;;;;;;;25.20;4.40;;;4.50;99.90;;;;;;4995699;28;20371;-71
2022/01/28 05:33:31;;;;;;;23.23;4.28;;;4.50;99.90;;;;;;4981239;28;20042;-71
2022/01/28 05:35:57;;;;;;;23.67;4.22;;;4.50;99.90;;;;;;4988730;28;20049;-71
2022/01/28 05:38:22;;;;;;;25.80;5.63;;;4.40;99.90;;;;;;4987002;28;20046;-71
2022/01/28 05:40:48;;;;;;;29.42;4.55;;;4.40;99.90;;;;;;4989056;28;20111;-71
2022/01/28 05:43:13;;;;;;;16.77;3.40;;;4.40;99.90;;;;;;4983733;28;20084;-71
2022/01/28 05:45:40;;;;;;;22.27;4.05;;;4.30;99.90;;;;;;4994130;28;20096;-71
2022/01/28 05:48:06;;;;;;;22.42;3.85;;;4.40;99.90;;;;;;4987637;28;20035;-71
2022/01/28 05:50:32;;;;;;;24.08;4.43;;;4.30;99.90;;;;;;5011874;28;20030;-71
2022/01/28 05:52:57;;;;;;;15.10;3.20;;;4.30;99.90;;;;;;4985139;28;20044;-71
2022/01/28 05:55:24;;;;;;;21.85;3.47;;;4.30;99.90;;;;;;4989961;28;20560;-71
2022/01/28 05:57:50;;;;;;;19.67;3.85;;;4.40;99.90;;;;;;4994318;28;20045;-71
2022/01/28 06:00:17;;;;;;;16.92;3.72;;;4.40;99.90;;;;;;4991965;28;20046;-71
2022/01/28 06:02:43;;;;;;;15.52;4.10;;;4.50;99.90;;;;;;4990704;28;20038;-71
2022/01/28 06:05:09;;;;;;;19.38;3.45;;;4.60;99.90;;;;;;4990105;28;20076;-71
2022/01/28 06:07:41;;;;;;;21.45;4.20;;;4.70;99.90;;;;;;4987527;28;20069;-71
2022/01/28 06:10:10;;;;;;;19.27;3.60;;;4.70;99.90;;;;;;4992006;28;20044;-71
2022/01/28 06:12:44;;;;;;;24.60;4.28;;;4.80;99.90;;;;;;4980043;28;20042;-71
2022/01/28 06:15:10;;;;;;;19.60;3.92;;;4.80;99.90;;;;;;4987819;28;20046;-71
2022/01/28 06:17:37;;;;;;;22.80;3.72;;;4.80;99.90;;;;;;4989814;28;20496;-71
2022/01/28 06:20:04;;;;;;;26.15;4.00;;;4.90;99.90;;;;;;4991106;28;20124;-71
2022/01/28 06:22:30;;;;;;;21.25;3.05;;;4.90;99.90;;;;;;4992288;28;20450;-71
2022/01/28 06:24:56;;;;;;;16.52;3.10;;;5.00;99.90;;;;;;4994562;28;20054;-71
2022/01/28 06:27:22;;;;;;;16.38;3.28;;;5.00;99.90;;;;;;4983241;28;20037;-71
2022/01/28 06:29:49;;;;;;;27.13;4.25;;;5.00;99.90;;;;;;5010381;28;20054;-72
2022/01/28 06:32:16;;;;;;;18.65;2.58;;;5.00;99.90;;;;;;5008391;28;20523;-71
2022/01/28 06:34:42;;;;;;;23.35;3.58;;;5.10;99.90;;;;;;4986716;28;20054;-71
2022/01/28 06:37:07;;;;;;;24.55;4.25;;;5.10;99.90;;;;;;4986853;28;20048;-71
2022/01/28 06:39:33;;;;;;;19.40;3.72;;;5.10;99.90;;;;;;4999786;28;20038;-71
2022/01/28 06:41:59;;;;;;;17.73;3.20;;;5.10;99.90;;;;;;4991097;28;20037;-71
2022/01/28 06:44:25;;;;;;;18.25;3.67;;;5.00;99.90;;;;;;4992855;28;20042;-71
2022/01/28 06:46:52;;;;;;;22.55;3.60;;;5.10;99.90;;;;;;4989719;28;20045;-71
2022/01/28 06:49:18;;;;;;;20.35;4.68;;;5.10;99.90;;;;;;4998068;28;20385;-71
2022/01/28 06:51:43;;;;;;;20.58;3.47;;;5.10;99.90;;;;;;4998592;28;20549;-71
2022/01/28 06:54:09;;;;;;;22.85;4.00;;;5.00;99.90;;;;;;5003312;28;20042;-71
2022/01/28 06:56:34;;;;;;;16.58;3.45;;;4.90;99.90;;;;;;4995083;28;20037;-71
2022/01/28 06:59:00;;;;;;;19.13;3.30;;;4.90;99.90;;;;;;5001671;28;20052;-71
2022/01/28 07:01:26;;;;;;;15.43;3.67;;;4.80;99.90;;;;;;5012653;28;20133;-71
2022/01/28 07:03:51;;;;;;;28.38;4.32;;;4.80;99.90;;;;;;4994850;28;20554;-71
2022/01/28 07:06:18;;;;;;;17.33;3.63;;;4.70;99.90;;;;;;4992678;28;20148;-71
2022/01/28 07:08:44;;;;;;;21.92;4.00;;;4.60;99.90;;;;;;4992574;28;20104;-71
2022/01/28 07:11:10;;;;;;;15.63;3.03;;;4.50;99.90;;;;;;4990912;28;20637;-71
2022/01/28 07:13:35;;;;;;;24.65;3.80;;;4.40;99.90;;;;;;4972376;28;20465;-72
2022/01/28 07:16:01;;;;;;;30.27;4.55;;;4.30;99.90;;;;;;5000300;28;20084;-71
2022/01/28 07:18:28;;;;;;;18.88;3.35;;;4.30;99.90;;;;;;4990055;28;20404;-71
2022/01/28 07:20:54;;;;;;;16.80;3.63;;;4.20;99.90;;;;;;4991468;28;20476;-71
2022/01/28 07:23:20;;;;;;;22.23;3.53;;;4.10;99.90;;;;;;4996317;28;20048;-71
2022/01/28 07:25:45;;;;;;;24.75;4.13;;;4.10;99.90;;;;;;5003164;28;20044;-71
2022/01/28 07:28:11;;;;;;;19.77;3.28;;;4.00;99.90;;;;;;4999047;28;20042;-72
2022/01/28 07:30:37;;;;;;;17.80;3.15;;;3.90;99.90;;;;;;4994108;28;20096;-71
2022/01/28 07:33:06;;;;;;;26.15;3.75;;;3.90;99.90;;;;;;4993992;28;20538;-71
2022/01/28 07:35:32;;;;;;;18.50;3.08;;;3.80;99.90;;;;;;4994397;28;20050;-71
2022/01/28 07:37:57;;;;;;;16.48;3.22;;;3.80;99.90;;;;;;4994483;28;20041;-71
2022/01/28 07:40:23;;;;;;;22.67;3.38;;;3.80;99.90;;;;;;4993230;28;20052;-71
2022/01/28 07:42:49;;;;;;;21.65;3.65;;;3.80;99.90;;;;;;5018434;28;20041;-71
2022/01/28 07:45:15;;;;;;;21.52;3.28;;;3.80;99.90;;;;;;4993205;28;20030;-71
2022/01/28 07:47:41;;;;;;;17.67;3.88;;;3.80;99.90;;;;;;4977043;28;20046;-71
2022/01/28 07:50:08;;;;;;;21.85;3.65;;;3.80;99.90;;;;;;4993663;28;20431;-71
2022/01/28 07:52:35;;;;;;;20.00;4.20;;;3.90;99.90;;;;;;4993265;28;20053;-71
2022/01/28 07:55:00;;;;;;;23.98;3.85;;;3.90;99.90;;;;;;4993035;28;20487;-71
2022/01/28 07:57:26;;;;;;;20.70;3.55;;;4.00;99.90;;;;;;5011423;28;20033;-71
2022/01/28 07:59:52;;;;;;;24.63;4.03;;;4.00;99.90;;;;;;4993763;28;20037;-71
2022/01/28 08:02:17;;;;;;;16.23;3.30;;;4.10;99.90;;;;;;4994636;28;20137;-71
2022/01/28 08:04:43;;;;;;;21.45;3.58;;;4.10;99.90;;;;;;4992899;28;20041;-72
2022/01/28 08:07:08;;;;;;;19.58;2.97;;;4.10;99.90;;;;;;4996253;28;20189;-71
2022/01/28 08:09:34;;;;;;;20.30;3.55;;;4.20;99.90;;;;;;4990349;28;20034;-71
2022/01/28 08:11:59;;;;;;;20.23;3.30;;;4.30;99.90;;;;;;4993576;28;20048;-71
2022/01/28 08:14:26;;;;;;;19.27;3.45;;;4.40;99.90;;;;;;4992004;28;20745;-71
2022/01/28 08:16:52;;;;;;;20.02;3.85;;;4.40;99.90;;;;;;4993566;28;20095;-71
2022/01/28 08:19:18;;;;;;;21.77;3.72;;;4.40;99.90;;;;;;4988591;28;20041;-71
2022/01/28 08:21:43;;;;;;;21.60;3.80;;;4.40;99.90;;;;;;5025880;22;20046;-73
2022/01/28 08:24:09;;;;;;;23.77;3.47;;;4.40;99.90;;;;;;5017450;28;20041;-72
2022/01/28 08:26:34;;;;;;;19.23;3.97;;;4.50;99.90;;;;;;5015036;28;20041;-72
2022/01/28 08:29:00;;;;;;;25.77;4.40;;;4.50;99.90;;;;;;5013563;28;20037;-73
2022/01/28 08:31:25;;;;;;;26.20;4.15;;;4.50;99.90;;;;;;5022651;28;20156;-72
2022/01/28 08:33:51;;;;;;;32.38;4.53;;;4.50;99.90;;;;;;5029065;28;20034;-73
2022/01/28 08:36:19;;;;;;;25.73;4.22;;;4.60;99.90;;;;;;5046311;28;20033;-73
2022/01/28 08:38:46;;;;;;;24.40;3.80;;;4.60;99.90;;;;;;5012086;28;20045;-73
2022/01/28 08:41:13;;;;;;;23.40;4.30;;;4.80;99.90;;;;;;5011577;28;20128;-72
2022/01/28 08:43:42;;;;;;;23.80;4.75;;;4.80;99.90;;;;;;5011598;28;20048;-72
2022/01/28 08:46:08;;;;;;;26.88;4.10;;;4.90;99.90;;;;;;5013167;28;20467;-72
2022/01/28 08:48:34;;;;;;;25.05;4.03;;;5.00;99.90;;;;;;5004283;28;20064;-72
2022/01/28 08:51:00;;;;;;;27.90;5.50;;;5.10;99.90;;;;;;5012919;28;20529;-72
2022/01/28 08:53:25;;;;;;;23.08;4.40;;;5.20;99.90;;;;;;5041980;28;20045;-71
2022/01/28 08:55:51;;;;;;;18.92;5.28;;;5.10;99.90;;;;;;5006173;28;20030;-72
2022/01/28 08:58:17;;;;;;;21.80;4.80;;;5.10;99.90;;;;;;5011496;28;20045;-72
2022/01/28 09:00:46;;;;;;;21.15;3.80;;;5.10;99.90;;;;;;4995504;28;20057;-71
2022/01/28 09:03:15;;;;;;;19.77;3.65;;;5.10;99.90;;;;;;5031387;28;20055;-71
2022/01/28 09:05:41;;;;;;;21.73;4.63;;;5.10;99.90;;;;;;4996254;28;20422;-72
2022/01/28 09:08:09;;;;;;;13.52;3.45;;;5.20;99.90;;;;;;5012784;28;20041;-72
2022/01/28 09:10:43;;;;;;;18.73;3.28;;;5.20;99.90;;;;;;5011224;28;20084;-73
2022/01/28 09:15:37;;;;;;;18.45;3.22;;;5.30;99.90;;;;;;5024628;28;20440;-73
2022/01/28 09:18:04;;;;;;;18.55;4.03;;;5.30;99.90;;;;;;5008996;28;20073;-73
2022/01/28 09:20:32;;;;;;;21.73;3.15;;;5.40;99.90;;;;;;5042822;28;20053;-73
2022/01/28 09:23:00;;;;;;;19.67;3.85;;;5.40;99.90;;;;;;5011928;28;20049;-73
2022/01/28 09:25:26;;;;;;;18.85;3.38;;;5.40;99.90;;;;;;5043074;28;20029;-74
2022/01/28 09:27:51;;;;;;;17.23;3.70;;;5.50;99.90;;;;;;5032703;28;20045;-73
2022/01/28 09:30:17;;;;;;;26.88;4.75;;;5.50;99.90;;;;;;5018832;28;20052;-73
2022/01/28 09:32:43;;;;;;;18.05;3.80;;;5.60;99.90;;;;;;5050927;28;20052;-73
2022/01/28 09:35:09;;;;;;;21.10;3.25;;;5.80;99.90;;;;;;5032549;28;20475;-73
2022/01/28 09:37:34;;;;;;;20.67;3.85;;;5.80;99.90;;;;;;5032571;28;20424;-73
2022/01/28 09:40:01;;;;;;;22.73;3.50;;;5.90;99.90;;;;;;5019741;28;20065;-74
2022/01/28 09:42:30;;;;;;;17.75;3.67;;;6.00;99.90;;;;;;5022586;28;20073;-73
2022/01/28 09:44:59;;;;;;;24.52;4.00;;;6.00;99.90;;;;;;5048307;28;20368;-74
2022/01/28 09:47:25;;;;;;;23.48;4.13;;;6.10;99.90;;;;;;5025436;28;20063;-74
2022/01/28 09:49:51;;;;;;;23.45;3.85;;;6.20;99.90;;;;;;5034160;28;20479;-73
2022/01/28 09:52:18;;;;;;;18.85;3.30;;;6.30;99.90;;;;;;5022391;28;20037;-74
2022/01/28 09:54:46;;;;;;;26.45;4.63;;;6.40;99.90;;;;;;5023740;28;20041;-73
2022/01/28 09:57:16;;;;;;;24.73;3.70;;;6.50;99.90;;;;;;5052319;28;20304;-73
2022/01/28 09:59:41;;;;;;;16.35;2.97;;;6.50;99.90;;;;;;5032120;28;20041;-73
2022/01/28 10:02:08;;;;;;;22.90;4.82;;;6.60;99.90;;;;;;5029792;28;20402;-72
2022/01/28 10:04:33;;;;;;;18.50;4.20;;;6.60;99.90;;;;;;5035923;28;20052;-74
2022/01/28 10:07:17;;;;;;;19.20;3.40;;;6.70;99.90;;;;;;5026341;28;20052;-73
2022/01/28 10:09:56;;;;;;;20.33;4.25;;;6.70;99.90;;;;;;5035671;28;20049;-69
2022/01/28 10:12:31;;;;;;;22.60;4.40;;;6.70;99.90;;;;;;5035286;28;20052;-69
2022/01/28 10:15:03;;;;;;;21.08;3.92;;;6.80;99.90;;;;;;5035891;28;20582;-69
2022/01/28 10:17:48;;;;;;;22.80;3.75;;;6.80;99.90;;;;;;5035474;28;20175;-69
2022/01/28 10:20:14;;;;;;;22.25;4.32;;;6.80;99.90;;;;;;5035026;28;20056;-69
2022/01/28 10:22:52;;;;;;;29.15;4.38;;;6.90;99.90;;;;;;5034954;28;20079;-69
2022/01/28 10:25:38;;;;;;;19.92;4.22;;;6.80;99.90;;;;;;5053133;28;20534;-69
2022/01/28 10:28:11;;;;;;;24.50;4.38;;;6.90;99.90;;;;;;5035225;28;20041;-69
2022/01/28 10:30:42;;;;;;;19.83;3.80;;;6.90;99.90;;;;;;5035509;28;20081;-69
2022/01/28 10:33:12;;;;;;;23.83;4.13;;;6.90;99.90;;;;;;5008716;28;20072;-69
2022/01/28 10:35:39;;;;;;;24.00;4.00;;;7.00;99.90;;;;;;5014884;28;20045;-69
2022/01/28 10:38:07;;;;;;;21.98;3.30;;;7.00;99.90;;;;;;5014948;28;20538;-69
2022/01/28 10:40:34;;;;;;;18.92;4.13;;;7.10;99.90;;;;;;5021280;28;20081;-69
2022/01/28 10:43:00;;;;;;;20.45;3.53;;;7.00;99.90;;;;;;5031956;28;20033;-69
2022/01/28 10:45:30;;;;;;;20.42;4.13;;;7.10;99.90;;;;;;5048276;28;20037;-69
2022/01/28 10:47:59;;;;;;;20.00;3.60;;;7.10;99.90;;;;;;5048432;28;20044;-69
2022/01/28 10:50:33;;;;;;;23.15;4.95;;;7.20;99.90;;;;;;4998349;28;20080;-69
2022/01/28 10:53:00;;;;;;;22.17;3.92;;;7.30;99.90;;;;;;5014486;28;20052;-69
2022/01/28 10:55:28;;;;;;;21.35;4.00;;;7.30;99.90;;;;;;5013949;28;20045;-69
2022/01/28 10:57:59;;;;;;;24.83;4.57;;;7.40;99.90;;;;;;5012871;28;20446;-69
2022/01/28 11:00:34;;;;;;;20.75;3.75;;;7.40;99.90;;;;;;5020017;28;20448;-69
2022/01/28 11:03:02;;;;;;;24.33;3.30;;;7.50;99.90;;;;;;5037316;28;20046;-69
2022/01/28 11:05:31;;;;;;;24.63;4.45;;;7.50;99.90;;;;;;5014467;28;20041;-69
2022/01/28 11:07:58;;;;;;;19.02;3.40;;;7.50;99.90;;;;;;5018975;28;20486;-69
2022/01/28 11:10:24;;;;;;;23.35;4.13;;;7.50;99.90;;;;;;5014562;28;20530;-70
2022/01/28 11:12:51;;;;;;;18.48;3.55;;;7.50;99.90;;;;;;5031683;28;20045;-69
2022/01/28 11:15:17;;;;;;;18.30;3.25;;;7.50;99.90;;;;;;5014048;28;20087;-69
2022/01/28 11:17:43;;;;;;;19.42;4.00;;;7.50;99.90;;;;;;4998110;28;20045;-69
2022/01/28 11:20:12;;;;;;;22.90;3.92;;;7.60;99.90;;;;;;5013117;28;20093;-69
2022/01/28 11:23:19;;;;;;;23.70;3.13;;;7.70;99.90;;;;;;5013318;28;20107;-69
2022/01/28 11:26:16;;;;;;;24.08;3.80;;;7.80;99.90;;;;;;5036700;28;20041;-69
2022/01/28 11:28:55;;;;;;;19.50;3.33;;;7.90;99.90;;;;;;5012640;28;20045;-69
2022/01/28 11:31:45;;;;;;;17.38;2.70;;;7.90;99.90;;;;;;5030080;28;20056;-69
2022/01/28 11:34:18;;;;;;;18.02;3.17;;;7.90;99.90;;;;;;5028897;28;20127;-69
2022/01/28 11:36:44;;;;;;;21.52;3.30;;;7.90;99.90;;;;;;5009065;28;20406;-69
2022/01/28 11:39:41;;;;;;;24.17;3.95;;;7.90;99.90;;;;;;4996449;28;20045;-70
2022/01/28 11:42:23;;;;;;;15.80;3.20;;;7.90;99.90;;;;;;5009432;28;20096;-70
2022/01/28 11:44:55;;;;;;;17.70;3.97;;;7.80;99.90;;;;;;5030853;28;20042;-70
2022/01/28 11:47:30;;;;;;;19.55;3.60;;;7.80;99.90;;;;;;5045932;28;20280;-70
2022/01/28 11:50:06;;;;;;;21.25;3.08;;;7.80;99.90;;;;;;5028340;28;20041;-70
2022/01/28 11:52:44;;;;;;;25.05;3.95;;;7.80;99.90;;;;;;5010656;28;20045;-70
2022/01/28 11:55:25;;;;;;;19.27;3.58;;;7.80;99.90;;;;;;5031512;28;20041;-70
2022/01/28 11:57:52;;;;;;;22.08;3.70;;;7.90;99.90;;;;;;5028193;28;20092;-70
2022/01/28 12:00:30;;;;;;;14.82;3.03;;;7.90;99.90;;;;;;5012453;28;20037;-70
2022/01/28 12:02:56;;;;;;;21.25;3.58;;;7.90;99.90;;;;;;5029512;28;20426;-70
2022/01/28 12:05:30;;;;;;;22.75;4.28;;;7.80;99.90;;;;;;5030652;28;20042;-70
2022/01/28 12:07:57;;;;;;;18.50;4.28;;;7.90;99.90;;;;;;5030704;28;20076;-70
2022/01/28 12:10:23;;;;;;;21.42;4.03;;;8.00;99.90;;;;;;5012717;28;20509;-70
2022/01/28 12:13:05;;;;;;;37.42;4.18;;;8.10;99.90;;;;;;5013072;28;20108;-70
2022/01/28 12:15:58;;;;;;;18.60;3.75;;;8.00;99.90;;;;;;5013522;28;20037;-70
2022/01/28 12:18:24;;;;;;;17.27;3.42;;;8.00;99.90;;;;;;5017403;28;20053;-70
2022/01/28 12:20:50;;;;;;;19.10;3.95;;;7.90;99.90;;;;;;5012648;28;20057;-70
2022/01/28 12:23:19;;;;;;;20.13;3.72;;;7.90;99.90;;;;;;5012428;28;20139;-70
2022/01/28 12:25:44;;;;;;;22.42;4.35;;;7.90;99.90;;;;;;5030440;28;20482;-70
2022/01/28 12:28:44;;;;;;;15.05;2.92;;;7.90;99.90;;;;;;5034559;28;20111;-70
2022/01/28 12:31:29;;;;;;;18.00;3.88;;;7.90;99.90;;;;;;5007218;28;20045;-70
2022/01/28 12:33:57;;;;;;;24.83;5.47;;;7.90;99.90;;;;;;5008009;28;20041;-70
2022/01/28 12:36:45;;;;;;;19.70;4.00;;;8.00;99.90;;;;;;5046403;28;20040;-70
2022/01/28 12:39:31;;;;;;;16.17;3.17;;;8.30;99.90;;;;;;5045450;28;20042;-70
2022/01/28 12:42:06;;;;;;;16.27;2.67;;;8.40;99.90;;;;;;5031305;28;20041;-70
2022/01/28 12:44:33;;;;;;;16.92;3.40;;;8.60;99.90;;;;;;5047228;28;20033;-70
2022/01/28 12:47:02;;;;;;;23.17;3.17;;;8.60;99.90;;;;;;5030377;28;20683;-70
2022/01/28 12:49:33;;;;;;;14.70;3.15;;;8.60;99.90;;;;;;5017706;28;20080;-70
2022/01/28 12:52:03;;;;;;;18.20;3.42;;;8.60;99.90;;;;;;5034887;28;20100;-71
2022/01/28 12:54:33;;;;;;;12.07;2.40;;;8.70;99.90;;;;;;5051633;28;20037;-71
2022/01/28 12:56:59;;;;;;;19.50;3.90;;;8.70;99.90;;;;;;5021283;28;20160;-71
2022/01/28 12:59:25;;;;;;;21.23;3.72;;;8.70;99.90;;;;;;5050387;28;20041;-70
2022/01/28 13:01:52;;;;;;;13.02;2.97;;;8.60;99.90;;;;;;5032610;28;20139;-71
2022/01/28 13:04:21;;;;;;;14.85;3.10;;;8.50;99.90;;;;;;5025852;28;20076;-71
2022/01/28 13:09:18;;;;;;;13.23;2.70;;;8.40;99.90;;;;;;5047806;28;20470;-71
2022/01/28 13:11:48;;;;;;;19.75;3.47;;;8.40;99.90;;;;;;5016031;28;20482;-71
2022/01/28 13:14:19;;;;;;;16.23;3.10;;;8.40;99.90;;;;;;5019830;28;20048;-71
2022/01/28 13:16:47;;;;;;;12.45;2.70;;;8.20;99.90;;;;;;5032509;28;20040;-71
2022/01/28 13:19:14;;;;;;;17.02;3.40;;;8.20;99.90;;;;;;5051771;28;20407;-71
2022/01/28 13:21:42;;;;;;;17.75;3.03;;;8.20;99.90;;;;;;5036056;28;20068;-71
2022/01/28 13:24:11;;;;;;;17.00;3.20;;;8.20;99.90;;;;;;5016565;28;20443;-71
2022/01/28 13:26:54;;;;;;;11.60;2.40;;;8.10;99.90;;;;;;5026448;28;20128;-71
2022/01/28 13:29:47;;;;;;;17.38;4.10;;;8.10;99.90;;;;;;5057774;28;20124;-71
2022/01/28 13:32:14;;;;;;;17.50;3.10;;;8.00;99.90;;;;;;5046421;28;20111;-70
2022/01/28 13:34:48;;;;;;;19.02;2.80;;;8.00;99.90;;;;;;5028504;28;20037;-71
2022/01/28 13:37:39;;;;;;;15.93;2.83;;;8.10;99.90;;;;;;5029934;28;20132;-70
2022/01/28 13:40:18;;;;;;;17.60;3.20;;;8.10;99.90;;;;;;5023359;28;20404;-70
2022/01/28 13:43:23;;;;;;;14.82;2.67;;;8.10;99.90;;;;;;5032388;28;20033;-70
2022/01/28 13:45:54;;;;;;;14.60;2.65;;;8.00;99.90;;;;;;5030261;28;20080;-70
2022/01/28 13:48:38;;;;;;;14.05;2.80;;;8.10;99.90;;;;;;5006811;28;20045;-70
2022/01/28 13:51:09;;;;;;;15.52;2.63;;;8.20;99.90;;;;;;5011785;28;20049;-70
2022/01/28 13:56:32;;;;;;;17.05;2.88;;;8.00;99.90;;;;;;5023980;28;20076;-70
2022/01/28 13:58:58;;;;;;;15.07;2.35;;;8.00;99.90;;;;;;5035627;28;20569;-70
2022/01/28 14:01:26;;;;;;;14.35;3.17;;;7.80;99.90;;;;;;5035596;28;20072;-75
2022/01/28 14:03:51;;;;;;;12.45;2.47;;;7.90;99.90;;;;;;5031363;28;20140;-73
2022/01/28 14:06:19;;;;;;;14.98;2.55;;;8.00;99.90;;;;;;5018860;28;20128;-74
2022/01/28 14:08:52;;;;;;;13.82;2.72;;;7.90;99.90;;;;;;5009084;28;20040;-74
2022/01/28 14:11:27;;;;;;;14.70;2.35;;;8.00;99.90;;;;;;5010799;28;20145;-74
2022/01/28 14:14:25;;;;;;;17.38;2.80;;;8.00;99.90;;;;;;5020134;28;20092;-74
2022/01/28 14:17:02;;;;;;;13.05;2.70;;;8.00;99.90;;;;;;5063217;28;20051;-74
2022/01/28 14:19:29;;;;;;;15.93;2.83;;;8.00;99.90;;;;;;5027189;28;20056;-74
2022/01/28 14:21:57;;;;;;;18.05;2.90;;;7.90;99.90;;;;;;5036176;28;20563;-74